• Join FlightAware (Why Join?)
  • Login
  • US Flag 
10:53PM EST


 

Airport Tracker/Info


-or-


 

Live Flight TrackerFlight Track Log ✈ SWA318 ✈ 08-Jul-2013 ✈ KMCO - KBNA

Flight Track Log - Related Links

Times and Time Zones

All times are in EDT time to prevent confusion due to time zone crossing. See the SWA318 flight status page for this flight to view local times or setup timezone preferences in your user account.

Time Position Orientation Groundspeed Altitude Reporting Facility
EDT Latitude Longitude Course Direction KTS MPH feet Rate Location/Type
08:38AM 28.4000 -81.3000 204° Southwest 151 174 900  Level Orlando TRACON
08:39AM 28.3667 -81.3167 204° Southwest 208 239 2,500 2,040 Climbing Orlando TRACON
08:40AM 28.3500 -81.4000 257° West 280 322 4,600 3,120 Climbing Orlando TRACON
08:41AM 28.3500 -81.4833 270° West 296 341 9,100 3,120 Climbing Orlando TRACON
08:44AM 28.3556 -81.7581 271° West 368 423 15,800 2,760 Climbing Jacksonville Center
08:45AM 28.3817 -81.8828 283° West 388 447 18,800 2,820 Climbing Jacksonville Center
08:46AM 28.4183 -82.0239 286° West 407 468 21,600 2,460 Climbing Jacksonville Center
08:47AM 28.4442 -82.1442 284° West 432 497 23,800 2,220 Climbing Jacksonville Center
08:48AM 28.4781 -82.2808 286° West 443 510 26,100 2,100 Climbing Jacksonville Center
08:49AM 28.5767 -82.3631 324° Northwest 414 476 28,100 2,100 Climbing Jacksonville Center
08:50AM 28.6978 -82.4025 344° North 419 482 30,300 2,340 Climbing Jacksonville Center
08:51AM 28.8150 -82.4472 342° North 426 490 32,800 2,280 Climbing Jacksonville Center
08:52AM 28.9319 -82.4939 341° North 437 503 34,900 2,040 Climbing Jacksonville Center
08:53AM 29.0447 -82.5386 341° North 437 503 36,900 1,800 Climbing Jacksonville Center
08:54AM 29.1575 -82.5833 341° North 432 497 38,500 1,500 Climbing Jacksonville Center
08:55AM 29.2683 -82.6258 342° North 421 484 39,900 720 Climbing Jacksonville Center
08:56AM 29.3792 -82.6686 341° North 421 484 40,000  Climbing Jacksonville Center
08:57AM 29.5022 -82.7231 339° North 421 484 40,000  Level Jacksonville Center
08:58AM 29.6150 -82.7683 341° North 431 496 40,000  Level Jacksonville Center
08:59AM 29.7236 -82.8111 341° North 425 489 40,000  Level Jacksonville Center
09:00AM 29.8364 -82.8542 342° North 425 489 40,000  Level Jacksonville Center
09:01AM 29.9492 -82.8997 341° North 425 489 40,000  Level Jacksonville Center
09:02AM 30.0597 -82.9406 342° North 425 489 40,000  Level Jacksonville Center
09:03AM 30.1664 -82.9839 341° North 420 483 40,000  Level Jacksonville Center
09:04AM 30.2769 -83.0272 341° North 420 483 40,000  Level Jacksonville Center
09:05AM 30.3875 -83.0731 340° North 415 478 40,000  Level Jacksonville Center
09:06AM 30.4981 -83.1167 341° North 415 478 40,000  Level Jacksonville Center
09:07AM 30.6067 -83.1628 340° North 410 472 40,000  Level Jacksonville Center
09:08AM 30.7172 -83.2067 341° North 410 472 40,000  Level Jacksonville Center
09:09AM 30.8089 -83.2433 341° North 410 472 40,000  Level Jacksonville Center
09:10AM 30.9256 -83.2947 339° North 410 472 40,000  Level Jacksonville Center
09:11AM 31.0383 -83.3386 342° North 410 472 40,000  Level Jacksonville Center
09:12AM 31.1489 -83.3853 340° North 415 478 40,000  Level Jacksonville Center
09:13AM 31.2614 -83.4322 340° North 415 478 40,000  Level Jacksonville Center
09:15AM 31.5078 -83.5347 340° North 415 478 40,000  Level Atlanta Center
09:16AM 31.6164 -83.5756 342° North 415 478 40,000  Level Atlanta Center
09:17AM 31.7333 -83.6214 342° North 421 484 40,000  Level Atlanta Center
09:18AM 31.8378 -83.6647 341° North 432 497 40,000  Level Atlanta Center
09:19AM 31.9467 -83.7133 339° North 426 490 40,000  Level Atlanta Center
09:20AM 32.0553 -83.7619 339° North 420 483 40,000  Level Atlanta Center
09:21AM 32.1658 -83.8083 340° North 415 478 40,000  Level Atlanta Center
09:22AM 32.2744 -83.8547 340° North 409 471 40,000  Level Atlanta Center
09:23AM 32.3831 -83.9011 340° North 409 471 40,000  Level Atlanta Center
09:24AM 32.4939 -83.9478 340° North 409 471 40,000  Level Atlanta Center
09:25AM 32.6044 -83.9944 340° North 409 471 40,000  Level Atlanta Center
09:26AM 32.7150 -84.0414 340° North 409 471 40,000  Level Atlanta Center
09:27AM 32.8258 -84.0883 340° North 409 471 40,000  Level Atlanta Center
09:28AM 32.9364 -84.1378 339° North 409 471 40,000  Level Atlanta Center
09:29AM 33.0469 -84.1850 340° North 409 471 40,000  Level Atlanta Center
09:30AM 33.1553 -84.2322 340° North 409 471 40,000  Level Atlanta Center
09:31AM 33.2639 -84.2797 340° North 409 471 40,000  Level Atlanta Center
09:32AM 33.3847 -84.3300 341° North 409 471 40,000  Level Atlanta Center
09:33AM 33.4911 -84.3800 339° North 409 471 40,000  Level Atlanta Center
09:34AM 33.5953 -84.4228 341° North 420 483 40,000  Level Atlanta Center
09:35AM 33.7017 -84.4708 339° North 420 483 40,000  Level Atlanta Center
09:36AM 33.8247 -84.5264 339° North 420 483 40,000  Level Atlanta Center
09:37AM 33.9350 -84.5747 340° North 420 483 40,000  Level Atlanta Center
09:38AM 34.0433 -84.6231 340° North 425 489 40,000  Level Atlanta Center
09:39AM 34.1475 -84.6664 341° North 432 497 40,000  Level Atlanta Center
09:40AM 34.2578 -84.7175 339° North 427 491 40,000 -300 Level Atlanta Center
09:41AM 34.3658 -84.7964 329° Northwest 411 473 39,400 -780 Descending Atlanta Center
09:42AM 34.4636 -84.8703 328° Northwest 417 480 38,500 -720 Descending Atlanta Center
09:43AM 34.5631 -84.9444 328° Northwest 422 486 38,000 -420 Descending Atlanta Center
09:44AM 34.6608 -85.0161 329° Northwest 417 480 37,700 -600 Descending Atlanta Center
09:45AM 34.7456 -85.0853 326° Northwest 410 472 36,800 -900 Descending Atlanta Center
09:46AM 34.8453 -85.1650 327° Northwest 416 479 35,900 -960 Descending Atlanta Center
09:47AM 34.9447 -85.2425 327° Northwest 421 484 34,900 -1,680 Descending Atlanta Center
09:49AM 35.1983 -85.4581 325° Northwest 434 499 30,200 -2,100 Descending Memphis Center
09:50AM 35.2797 -85.5603 314° West 422 486 27,700 -2,460 Descending Memphis Center
09:51AM 35.3586 -85.6650 313° West 422 486 25,300 -2,400 Descending Memphis Center
09:52AM 35.4353 -85.7628 314° West 411 473 22,900 -2,340 Descending Memphis Center
09:53AM 35.5097 -85.8556 315° West 400 460 20,700 -2,280 Descending Memphis Center
09:54AM 35.5819 -85.9511 313° West 389 448 18,400 -2,220 Descending Memphis Center
09:55AM 35.6478 -86.0419 312° West 376 433 16,300 -2,160 Descending Memphis Center
09:56AM 35.7175 -86.1306 314° West 367 422 14,100 -2,220 Descending Memphis Center
09:57AM 35.7808 -86.2167 312° West 352 405 11,900 -1,980 Descending Memphis Center
09:58AM 35.8442 -86.3008 313° West 341 392 10,200 -1,500 Descending Memphis Center
09:59AM 35.9006 -86.3747 313° West 318 366 9,000 -1,260 Descending Memphis Center
10:00AM 35.9486 -86.4392 313° West 297 342 7,700 -1,320 Descending Memphis Center
10:01AM 36.0028 -86.5083 314° West 284 327 6,400 -1,080 Descending Memphis Center
10:02AM 36.0528 -86.5728 314° West 273 314 5,600 -720 Descending Memphis Center
10:03AM 36.1192 -86.5567 11° North 213 245 5,000 -360 Descending Memphis Center
10:04AM 36.1767 -86.5311 20° North 213 245 4,900 -540 Descending Memphis Center
10:05AM 36.2289 -86.5364 355° North 191 220 4,000 -960 Descending Memphis Center
10:06AM 36.2347 -86.5925 277° West 138 159 3,000 -1,020 Descending Memphis Center
10:07AM 36.2028 -86.6328 226° Southwest 138 159 2,000 -1,020 Descending Memphis Center
10:10AM 36.1245 -86.6782 205° Southwest  Level Estimated
10:17AM 36.1245 -86.6782 302° West  Level Estimated
10:18AM 36.1245 -86.6782 302° West  Level Estimated
10:19AM 36.1245 -86.6782 302° West  Level Estimated
10:20AM 36.1245 -86.6782 302° West  Level Estimated
10:21AM 36.1245 -86.6782 302° West  Level Estimated
10:22AM 36.1245 -86.6782 302° West  Level Estimated
10:23AM 36.1245 -86.6782 302° West  Level Estimated